Time;durP1;ratioP1;P1;durP2;ratioP2;P2;SDS_P1;SDS_P2;PMS_P1;PMS_P2;Temp;Humidity;BMP_temperature;BMP_pressure;BME280_temperature;BME280_humidity;BME280_pressure;Samples;Min_cycle;Max_cycle;Signal;HPM_P1;HPM_P2
2021/07/25 00:00:20;;;;;;;61.20;48.63;;;;;;;;;;2066487;28;20166;-53
2021/07/25 00:01:20;;;;;;;67.28;51.47;;;;;;;;;;2067979;28;21890;-55
2021/07/25 00:02:20;;;;;;;65.53;49.97;;;;;;;;;;2073739;28;20181;-54
2021/07/25 00:03:21;;;;;;;64.65;50.38;;;;;;;;;;2072745;28;20703;-55
2021/07/25 00:04:22;;;;;;;65.80;51.83;;;;;;;;;;2070756;28;20276;-52
2021/07/25 00:05:22;;;;;;;61.13;50.33;;;;;;;;;;2066428;28;20666;-53
2021/07/25 00:06:22;;;;;;;68.05;49.47;;;;;;;;;;2068442;28;20260;-52
2021/07/25 00:07:22;;;;;;;63.25;48.45;;;;;;;;;;2073445;28;20191;-53
2021/07/25 00:08:23;;;;;;;71.47;52.80;;;;;;;;;;2074510;28;20668;-55
2021/07/25 00:09:23;;;;;;;67.72;52.63;;;;;;;;;;2069065;28;20178;-56
2021/07/25 00:10:23;;;;;;;67.35;52.72;;;;;;;;;;2066373;28;20240;-56
2021/07/25 00:11:23;;;;;;;69.32;52.33;;;;;;;;;;2067504;28;20876;-54
2021/07/25 00:12:24;;;;;;;68.47;51.85;;;;;;;;;;2071872;28;20662;-55
2021/07/25 00:13:24;;;;;;;69.68;52.45;;;;;;;;;;2073135;28;20169;-55
2021/07/25 00:14:24;;;;;;;75.97;54.42;;;;;;;;;;2069783;28;21009;-56
2021/07/25 00:15:24;;;;;;;66.97;52.40;;;;;;;;;;2070434;28;20208;-54
2021/07/25 00:16:25;;;;;;;66.57;50.78;;;;;;;;;;2069330;28;20193;-55
2021/07/25 00:17:25;;;;;;;68.53;52.05;;;;;;;;;;2071828;28;20204;-56
2021/07/25 00:18:25;;;;;;;62.78;51.08;;;;;;;;;;2073806;28;20612;-55
2021/07/25 00:19:25;;;;;;;64.47;51.25;;;;;;;;;;2072081;28;20177;-56
2021/07/25 00:20:26;;;;;;;65.55;51.38;;;;;;;;;;2073977;28;20169;-56
2021/07/25 00:21:26;;;;;;;64.00;51.17;;;;;;;;;;2068298;28;20602;-57
2021/07/25 00:22:26;;;;;;;60.13;49.97;;;;;;;;;;2071945;28;20203;-54
2021/07/25 00:23:28;;;;;;;65.80;50.75;;;;;;;;;;2073205;28;20173;-55
2021/07/25 00:24:31;;;;;;;61.55;49.28;;;;;;;;;;2068627;28;20196;-55
2021/07/25 00:25:33;;;;;;;67.43;49.85;;;;;;;;;;2066056;28;20173;-54
2021/07/25 00:26:37;;;;;;;64.40;50.40;;;;;;;;;;2066403;28;20194;-57
2021/07/25 00:27:40;;;;;;;64.55;49.78;;;;;;;;;;2073345;28;20177;-56
2021/07/25 00:28:40;;;;;;;69.40;51.58;;;;;;;;;;2073667;28;20283;-54
2021/07/25 00:29:41;;;;;;;64.15;48.97;;;;;;;;;;2065648;28;20177;-56
2021/07/25 00:30:41;;;;;;;66.47;49.85;;;;;;;;;;2073107;28;20180;-56
2021/07/25 00:31:41;;;;;;;63.17;49.58;;;;;;;;;;2074183;28;20675;-56
2021/07/25 00:32:42;;;;;;;57.53;48.80;;;;;;;;;;2074553;28;20177;-55
2021/07/25 00:33:43;;;;;;;63.03;49.47;;;;;;;;;;2075986;28;20177;-53
2021/07/25 00:34:44;;;;;;;60.35;50.03;;;;;;;;;;2073228;28;20192;-54
2021/07/25 00:35:44;;;;;;;57.83;47.33;;;;;;;;;;2066802;28;20201;-57
2021/07/25 00:36:45;;;;;;;62.30;48.10;;;;;;;;;;2074672;28;20595;-55
2021/07/25 00:37:47;;;;;;;58.50;47.78;;;;;;;;;;2074321;28;20208;-54
2021/07/25 00:38:48;;;;;;;60.20;48.50;;;;;;;;;;2073963;28;20640;-56
2021/07/25 00:39:48;;;;;;;63.03;49.47;;;;;;;;;;2074314;28;20169;-52
2021/07/25 00:40:49;;;;;;;65.05;50.45;;;;;;;;;;2072582;28;20169;-55
2021/07/25 00:41:49;;;;;;;64.30;48.28;;;;;;;;;;2073667;28;20165;-58
2021/07/25 00:42:49;;;;;;;60.95;49.13;;;;;;;;;;2071277;28;20165;-54
2021/07/25 00:43:50;;;;;;;66.07;50.17;;;;;;;;;;2070637;28;20658;-56
2021/07/25 00:44:50;;;;;;;62.35;49.58;;;;;;;;;;2069235;28;20181;-54
2021/07/25 00:45:50;;;;;;;66.40;51.50;;;;;;;;;;2062009;28;20174;-55
2021/07/25 00:47:00;;;;;;;67.72;50.22;;;;;;;;;;2066132;28;20182;-52
2021/07/25 00:48:01;;;;;;;68.35;52.00;;;;;;;;;;2067886;28;20170;-53
2021/07/25 00:49:02;;;;;;;66.30;52.47;;;;;;;;;;2073776;28;20220;-53
2021/07/25 00:50:03;;;;;;;65.88;51.05;;;;;;;;;;2073716;28;20172;-54
2021/07/25 00:51:05;;;;;;;63.45;50.35;;;;;;;;;;2072226;28;20196;-54
2021/07/25 00:52:06;;;;;;;68.13;50.35;;;;;;;;;;2074919;28;20273;-54
2021/07/25 00:53:06;;;;;;;65.45;49.20;;;;;;;;;;2071931;28;20186;-56
2021/07/25 00:54:06;;;;;;;67.78;49.63;;;;;;;;;;2072232;28;20263;-55
2021/07/25 00:55:07;;;;;;;67.75;50.58;;;;;;;;;;2073996;28;20189;-55
2021/07/25 00:56:08;;;;;;;63.88;48.35;;;;;;;;;;2070988;28;20209;-53
2021/07/25 00:57:08;;;;;;;62.75;47.90;;;;;;;;;;2073917;28;20679;-53
2021/07/25 00:58:09;;;;;;;62.05;49.05;;;;;;;;;;2071359;28;20185;-56
2021/07/25 00:59:10;;;;;;;64.22;49.83;;;;;;;;;;2066911;28;20192;-54
2021/07/25 01:00:11;;;;;;;63.45;49.28;;;;;;;;;;2066679;28;20209;-56
2021/07/25 01:01:11;;;;;;;70.65;51.55;;;;;;;;;;2072633;28;20169;-54
2021/07/25 01:02:12;;;;;;;66.30;49.13;;;;;;;;;;2075009;28;20228;-56
2021/07/25 01:03:22;;;;;;;63.00;49.50;;;;;;;;;;2073814;28;20673;-58
2021/07/25 01:04:42;;;;;;;62.67;48.58;;;;;;;;;;2073468;28;20276;-53
2021/07/25 01:05:46;;;;;;;70.10;51.80;;;;;;;;;;2073491;28;20854;-55
2021/07/25 01:06:53;;;;;;;65.07;49.28;;;;;;;;;;2073667;28;20192;-58
2021/07/25 01:07:59;;;;;;;61.35;47.88;;;;;;;;;;2069994;28;20213;-56
2021/07/25 01:09:01;;;;;;;59.53;46.92;;;;;;;;;;2076475;28;20164;-57
2021/07/25 01:10:03;;;;;;;66.50;49.03;;;;;;;;;;2074891;28;20175;-55
2021/07/25 01:11:05;;;;;;;61.22;46.80;;;;;;;;;;2070936;28;20187;-54
2021/07/25 01:12:06;;;;;;;63.00;47.80;;;;;;;;;;2072642;28;20181;-57
2021/07/25 01:13:14;;;;;;;58.17;45.88;;;;;;;;;;2069785;28;20177;-54
2021/07/25 01:14:25;;;;;;;62.88;47.65;;;;;;;;;;2071654;28;20200;-53
2021/07/25 01:15:26;;;;;;;60.83;47.65;;;;;;;;;;2071163;28;20216;-55
2021/07/25 01:16:27;;;;;;;61.78;45.65;;;;;;;;;;2067760;28;20188;-56
2021/07/25 01:17:28;;;;;;;58.50;46.30;;;;;;;;;;2072707;28;20173;-55
2021/07/25 01:18:28;;;;;;;60.25;47.30;;;;;;;;;;2073095;28;20566;-53
2021/07/25 01:19:29;;;;;;;59.90;46.45;;;;;;;;;;2066737;28;20177;-54
2021/07/25 01:20:29;;;;;;;59.85;45.63;;;;;;;;;;2071298;28;20207;-55
2021/07/25 01:21:29;;;;;;;57.75;46.33;;;;;;;;;;2072730;28;20184;-56
2021/07/25 01:22:32;;;;;;;58.28;45.38;;;;;;;;;;2073349;28;20614;-56
2021/07/25 01:23:33;;;;;;;61.28;46.50;;;;;;;;;;2073183;28;20173;-55
2021/07/25 01:24:33;;;;;;;59.60;46.25;;;;;;;;;;2073045;28;20567;-55
2021/07/25 01:25:35;;;;;;;63.65;47.88;;;;;;;;;;2069504;28;20216;-52
2021/07/25 01:26:36;;;;;;;56.53;46.15;;;;;;;;;;2073597;28;20264;-52
2021/07/25 01:27:55;;;;;;;65.05;46.08;;;;;;;;;;2073225;28;20173;-52
2021/07/25 01:28:58;;;;;;;63.35;48.25;;;;;;;;;;2067569;28;20535;-54
2021/07/25 01:29:59;;;;;;;64.45;49.20;;;;;;;;;;2067443;28;20270;-53
2021/07/25 01:31:00;;;;;;;66.07;49.40;;;;;;;;;;2071908;28;20161;-54
2021/07/25 01:32:01;;;;;;;61.65;48.80;;;;;;;;;;2072637;28;20183;-52
2021/07/25 01:33:02;;;;;;;65.30;47.67;;;;;;;;;;2072629;28;20200;-52
2021/07/25 01:34:03;;;;;;;59.80;48.10;;;;;;;;;;2070083;28;20249;-55
2021/07/25 01:35:04;;;;;;;69.57;52.17;;;;;;;;;;2072375;28;20213;-54
2021/07/25 01:36:04;;;;;;;66.25;49.97;;;;;;;;;;2064588;28;20218;-52
2021/07/25 01:37:05;;;;;;;70.78;53.85;;;;;;;;;;2061907;28;20277;-55
2021/07/25 01:38:08;;;;;;;71.90;53.75;;;;;;;;;;2071998;28;20667;-53
2021/07/25 01:39:09;;;;;;;70.30;52.05;;;;;;;;;;2071776;28;20269;-54
2021/07/25 01:40:16;;;;;;;71.55;53.28;;;;;;;;;;2072634;28;20758;-56
2021/07/25 01:41:16;;;;;;;77.75;56.17;;;;;;;;;;2065412;28;20576;-55
2021/07/25 01:42:27;;;;;;;75.22;54.30;;;;;;;;;;2072518;28;20169;-56
2021/07/25 01:43:27;;;;;;;80.78;58.28;;;;;;;;;;2068250;28;20176;-52
2021/07/25 01:44:27;;;;;;;74.72;55.38;;;;;;;;;;2065786;28;20243;-51
2021/07/25 01:45:28;;;;;;;79.07;57.08;;;;;;;;;;2064949;28;20686;-54
2021/07/25 01:46:28;;;;;;;74.97;55.15;;;;;;;;;;2065313;28;20200;-51
2021/07/25 01:47:29;;;;;;;79.32;57.72;;;;;;;;;;2066570;28;20220;-52
2021/07/25 01:48:29;;;;;;;78.28;57.47;;;;;;;;;;2065848;28;20706;-54
2021/07/25 01:49:30;;;;;;;80.72;59.03;;;;;;;;;;2065652;28;20188;-51
2021/07/25 01:50:30;;;;;;;79.07;55.95;;;;;;;;;;2065855;28;20177;-52
2021/07/25 01:51:30;;;;;;;74.40;56.78;;;;;;;;;;2072878;28;20212;-56
2021/07/25 01:52:30;;;;;;;79.85;55.38;;;;;;;;;;2073704;28;20805;-53
2021/07/25 01:53:31;;;;;;;77.85;57.25;;;;;;;;;;2068766;28;20217;-52
2021/07/25 01:54:32;;;;;;;84.00;57.90;;;;;;;;;;2073955;28;20196;-53
2021/07/25 01:55:32;;;;;;;84.13;58.15;;;;;;;;;;2073518;28;20214;-52
2021/07/25 01:56:32;;;;;;;77.75;55.58;;;;;;;;;;2073727;28;20161;-52
2021/07/25 01:57:32;;;;;;;74.32;56.45;;;;;;;;;;2073523;28;20664;-52
2021/07/25 01:58:33;;;;;;;69.80;53.65;;;;;;;;;;2065667;28;20184;-52
2021/07/25 01:59:33;;;;;;;76.65;56.00;;;;;;;;;;2065781;28;20182;-54
2021/07/25 02:00:33;;;;;;;74.28;54.60;;;;;;;;;;2065024;28;20637;-52
2021/07/25 02:01:34;;;;;;;74.55;55.85;;;;;;;;;;2056564;28;20558;-54
2021/07/25 02:02:34;;;;;;;71.10;52.85;;;;;;;;;;2064886;28;20181;-52
2021/07/25 02:03:35;;;;;;;71.18;52.05;;;;;;;;;;2069837;28;20533;-56
2021/07/25 02:04:35;;;;;;;75.03;55.45;;;;;;;;;;2072209;28;20205;-52
2021/07/25 02:05:36;;;;;;;74.63;55.45;;;;;;;;;;2072806;28;20176;-52
2021/07/25 02:06:37;;;;;;;71.97;53.58;;;;;;;;;;2071992;28;20185;-55
2021/07/25 02:07:37;;;;;;;75.72;55.28;;;;;;;;;;2071446;28;20169;-55
2021/07/25 02:08:37;;;;;;;78.25;57.20;;;;;;;;;;2071826;28;20181;-52
2021/07/25 02:09:38;;;;;;;83.18;58.53;;;;;;;;;;2073299;28;20185;-52
2021/07/25 02:10:41;;;;;;;74.07;53.85;;;;;;;;;;2068290;28;20174;-56
2021/07/25 02:11:42;;;;;;;81.25;56.92;;;;;;;;;;2072240;28;20177;-55
2021/07/25 02:12:43;;;;;;;79.70;55.42;;;;;;;;;;2072816;28;20719;-53
2021/07/25 02:13:43;;;;;;;82.00;56.40;;;;;;;;;;2066590;28;20593;-54
2021/07/25 02:14:43;;;;;;;78.97;56.90;;;;;;;;;;2071361;28;20180;-56
2021/07/25 02:15:44;;;;;;;79.47;55.95;;;;;;;;;;2073114;28;20224;-56
2021/07/25 02:16:44;;;;;;;79.25;55.92;;;;;;;;;;2066406;28;20185;-54
2021/07/25 02:17:44;;;;;;;74.50;54.53;;;;;;;;;;2066917;28;20177;-57
2021/07/25 02:18:44;;;;;;;72.55;53.08;;;;;;;;;;2073397;28;20256;-54
2021/07/25 02:19:45;;;;;;;79.90;54.25;;;;;;;;;;2072880;28;20180;-55
2021/07/25 02:20:46;;;;;;;74.22;54.40;;;;;;;;;;2072016;28;20212;-55
2021/07/25 02:21:46;;;;;;;74.07;52.63;;;;;;;;;;2071837;28;20247;-53
2021/07/25 02:22:46;;;;;;;77.22;55.22;;;;;;;;;;2072768;28;20246;-54
2021/07/25 02:23:47;;;;;;;75.68;53.30;;;;;;;;;;2068832;28;20724;-51
2021/07/25 02:24:47;;;;;;;80.78;56.15;;;;;;;;;;2073153;28;20196;-53
2021/07/25 02:25:47;;;;;;;71.38;50.95;;;;;;;;;;2072592;28;20665;-56
2021/07/25 02:26:48;;;;;;;76.55;52.90;;;;;;;;;;2073416;28;20215;-54
2021/07/25 02:27:48;;;;;;;73.75;52.20;;;;;;;;;;2072236;28;20165;-55
2021/07/25 02:28:49;;;;;;;71.72;52.42;;;;;;;;;;2072354;28;20196;-56
2021/07/25 02:29:49;;;;;;;75.80;51.50;;;;;;;;;;2072770;28;20170;-54
2021/07/25 02:30:49;;;;;;;77.55;51.55;;;;;;;;;;2072807;28;20657;-53
2021/07/25 02:31:49;;;;;;;77.00;53.65;;;;;;;;;;2072212;28;20166;-58
2021/07/25 02:32:50;;;;;;;85.60;55.88;;;;;;;;;;2069436;28;20197;-58
2021/07/25 02:33:50;;;;;;;72.75;51.90;;;;;;;;;;2068528;28;20170;-55
2021/07/25 02:34:50;;;;;;;74.88;52.88;;;;;;;;;;2068658;28;20778;-56
2021/07/25 02:35:50;;;;;;;75.85;51.65;;;;;;;;;;2072478;28;20547;-55
2021/07/25 02:36:51;;;;;;;75.68;51.92;;;;;;;;;;2071892;28;20571;-56
2021/07/25 02:37:51;;;;;;;73.78;51.85;;;;;;;;;;2071568;28;20255;-53
2021/07/25 02:38:51;;;;;;;77.05;55.10;;;;;;;;;;2066782;28;20185;-56
2021/07/25 02:39:51;;;;;;;72.55;52.83;;;;;;;;;;2071878;28;20256;-56
2021/07/25 02:40:52;;;;;;;75.35;52.70;;;;;;;;;;2067040;28;20244;-57
2021/07/25 02:41:52;;;;;;;75.03;52.70;;;;;;;;;;2071882;28;20177;-57
2021/07/25 02:42:52;;;;;;;75.22;52.65;;;;;;;;;;2073031;28;20180;-54
2021/07/25 02:43:52;;;;;;;78.43;56.08;;;;;;;;;;2071825;28;20668;-58
2021/07/25 02:44:53;;;;;;;79.20;56.25;;;;;;;;;;2073082;28;20223;-56
2021/07/25 02:45:53;;;;;;;76.65;54.53;;;;;;;;;;2074579;28;20665;-56
2021/07/25 02:46:53;;;;;;;82.07;55.03;;;;;;;;;;2073103;28;20239;-56
2021/07/25 02:47:53;;;;;;;79.57;55.47;;;;;;;;;;2073230;28;20196;-57
2021/07/25 02:48:54;;;;;;;82.47;57.30;;;;;;;;;;2075341;28;20260;-53
2021/07/25 02:49:54;;;;;;;82.70;56.92;;;;;;;;;;2073526;28;20185;-53
2021/07/25 02:50:58;;;;;;;84.70;57.67;;;;;;;;;;2072766;28;20173;-53
2021/07/25 02:52:01;;;;;;;89.43;59.13;;;;;;;;;;2071847;28;20181;-57
2021/07/25 02:53:02;;;;;;;90.82;60.45;;;;;;;;;;2072010;28;20212;-56
2021/07/25 02:54:02;;;;;;;94.15;62.45;;;;;;;;;;2072185;28;20196;-53
2021/07/25 02:55:03;;;;;;;89.72;60.67;;;;;;;;;;2072493;28;20181;-52
2021/07/25 02:56:03;;;;;;;98.68;66.03;;;;;;;;;;2071262;28;20191;-58
2021/07/25 02:57:04;;;;;;;91.72;61.20;;;;;;;;;;2071749;28;20288;-56
2021/07/25 02:58:04;;;;;;;95.15;64.00;;;;;;;;;;2072586;28;20181;-55
2021/07/25 02:59:04;;;;;;;98.03;66.00;;;;;;;;;;2070744;28;21007;-57
2021/07/25 03:00:05;;;;;;;95.35;65.00;;;;;;;;;;2069967;28;20189;-53
2021/07/25 03:01:12;;;;;;;98.10;65.35;;;;;;;;;;2070287;28;20169;-56
2021/07/25 03:02:12;;;;;;;104.75;66.70;;;;;;;;;;2071801;28;20256;-53
2021/07/25 03:03:12;;;;;;;103.30;69.10;;;;;;;;;;2071469;28;20696;-55
2021/07/25 03:04:12;;;;;;;101.80;65.65;;;;;;;;;;2072828;28;20200;-56
2021/07/25 03:05:13;;;;;;;98.63;64.45;;;;;;;;;;2073382;28;20590;-54
2021/07/25 03:06:13;;;;;;;101.90;66.20;;;;;;;;;;2073371;28;20173;-55
2021/07/25 03:07:14;;;;;;;102.72;65.60;;;;;;;;;;2071034;28;20287;-55
2021/07/25 03:08:14;;;;;;;102.72;65.80;;;;;;;;;;2070891;28;20231;-55
2021/07/25 03:09:15;;;;;;;96.63;65.55;;;;;;;;;;2068878;28;20231;-55
2021/07/25 03:10:17;;;;;;;99.25;64.60;;;;;;;;;;2072908;28;20642;-52
2021/07/25 03:11:19;;;;;;;101.72;66.85;;;;;;;;;;2069467;28;20653;-53
2021/07/25 03:12:20;;;;;;;102.25;65.93;;;;;;;;;;2072814;28;20184;-53
2021/07/25 03:13:20;;;;;;;108.13;68.97;;;;;;;;;;2067864;28;20259;-52
2021/07/25 03:14:20;;;;;;;104.00;66.15;;;;;;;;;;2072774;28;20247;-53
2021/07/25 03:15:20;;;;;;;105.80;67.93;;;;;;;;;;2069704;28;20583;-54
2021/07/25 03:16:21;;;;;;;111.03;68.45;;;;;;;;;;2068794;28;20665;-58
2021/07/25 03:17:21;;;;;;;107.55;68.43;;;;;;;;;;2071468;28;20649;-54
2021/07/25 03:18:21;;;;;;;103.53;66.97;;;;;;;;;;2069249;28;20256;-56
2021/07/25 03:19:21;;;;;;;109.40;68.45;;;;;;;;;;2069003;28;20200;-57
2021/07/25 03:20:22;;;;;;;108.57;68.35;;;;;;;;;;2072214;28;20617;-52
2021/07/25 03:21:22;;;;;;;116.18;69.13;;;;;;;;;;2069338;28;20181;-52
2021/07/25 03:22:23;;;;;;;107.95;68.38;;;;;;;;;;2071918;28;20556;-52
2021/07/25 03:23:23;;;;;;;110.07;68.38;;;;;;;;;;2071614;28;20196;-55
2021/07/25 03:24:24;;;;;;;106.72;68.47;;;;;;;;;;2071495;28;20204;-53
2021/07/25 03:25:24;;;;;;;103.00;66.45;;;;;;;;;;2071781;28;20184;-52
2021/07/25 03:26:24;;;;;;;110.70;67.25;;;;;;;;;;2071904;28;20189;-52
2021/07/25 03:27:24;;;;;;;118.13;71.82;;;;;;;;;;2071845;28;20212;-54
2021/07/25 03:28:25;;;;;;;109.90;69.20;;;;;;;;;;2069365;28;20250;-52
2021/07/25 03:29:25;;;;;;;118.05;71.15;;;;;;;;;;2069141;28;20223;-51
2021/07/25 03:30:25;;;;;;;117.88;70.10;;;;;;;;;;2069335;28;20212;-54
2021/07/25 03:31:26;;;;;;;116.75;71.45;;;;;;;;;;2071576;28;20689;-54
2021/07/25 03:32:26;;;;;;;122.47;72.93;;;;;;;;;;2073100;28;20181;-54
2021/07/25 03:33:26;;;;;;;116.13;72.30;;;;;;;;;;2071428;28;20610;-56
2021/07/25 03:34:31;;;;;;;126.22;74.03;;;;;;;;;;2067462;28;20250;-58
2021/07/25 03:35:33;;;;;;;124.05;73.97;;;;;;;;;;2070379;28;20192;-55
2021/07/25 03:36:33;;;;;;;124.28;74.13;;;;;;;;;;2071715;28;20165;-54
2021/07/25 03:37:34;;;;;;;116.95;70.53;;;;;;;;;;2069025;28;20181;-56
2021/07/25 03:38:34;;;;;;;114.13;69.30;;;;;;;;;;2071715;28;20199;-57
2021/07/25 03:39:34;;;;;;;118.38;72.55;;;;;;;;;;2072371;28;20212;-57
2021/07/25 03:40:35;;;;;;;126.00;76.05;;;;;;;;;;2068004;28;20220;-56
2021/07/25 03:41:35;;;;;;;124.05;74.57;;;;;;;;;;2070070;28;20273;-53
2021/07/25 03:42:35;;;;;;;129.60;76.63;;;;;;;;;;2067798;28;20173;-54
2021/07/25 03:43:36;;;;;;;131.07;75.68;;;;;;;;;;2071008;28;20183;-52
2021/07/25 03:44:36;;;;;;;130.07;73.03;;;;;;;;;;2067215;28;20204;-53
2021/07/25 03:45:36;;;;;;;134.30;77.10;;;;;;;;;;2070730;28;20200;-52
2021/07/25 03:46:37;;;;;;;136.32;79.57;;;;;;;;;;2070805;28;20177;-55
2021/07/25 03:47:38;;;;;;;137.02;76.25;;;;;;;;;;2072052;28;20196;-54
2021/07/25 03:48:40;;;;;;;134.27;76.05;;;;;;;;;;2070000;28;20177;-54
2021/07/25 03:49:40;;;;;;;142.32;76.57;;;;;;;;;;2071841;28;20185;-53
2021/07/25 03:50:42;;;;;;;137.07;76.95;;;;;;;;;;2072859;28;20177;-54
2021/07/25 03:51:42;;;;;;;138.05;78.50;;;;;;;;;;2071394;28;20188;-57
2021/07/25 03:52:42;;;;;;;139.52;78.03;;;;;;;;;;2069669;28;20184;-54
2021/07/25 03:53:42;;;;;;;137.05;76.70;;;;;;;;;;2071572;28;20549;-53
2021/07/25 03:54:43;;;;;;;137.38;76.65;;;;;;;;;;2071984;28;20215;-55
2021/07/25 03:55:44;;;;;;;136.80;76.78;;;;;;;;;;2072307;28;20197;-57
2021/07/25 03:56:44;;;;;;;135.65;77.53;;;;;;;;;;2064851;28;20202;-53
2021/07/25 03:57:45;;;;;;;148.35;79.95;;;;;;;;;;2065636;28;20178;-54
2021/07/25 03:58:45;;;;;;;136.52;76.18;;;;;;;;;;2072633;28;20536;-57
2021/07/25 03:59:46;;;;;;;131.68;75.15;;;;;;;;;;2072563;28;20634;-55
2021/07/25 04:00:46;;;;;;;140.30;76.38;;;;;;;;;;2065060;28;20166;-55
2021/07/25 04:01:47;;;;;;;132.68;71.60;;;;;;;;;;2071744;28;20249;-52
2021/07/25 04:02:47;;;;;;;122.20;71.53;;;;;;;;;;2064295;28;20197;-52
2021/07/25 04:03:47;;;;;;;136.43;75.50;;;;;;;;;;2066873;28;20177;-52
2021/07/25 04:04:47;;;;;;;133.10;75.80;;;;;;;;;;2072275;28;20176;-52
2021/07/25 04:05:47;;;;;;;130.20;72.47;;;;;;;;;;2071894;28;20165;-51
2021/07/25 04:06:48;;;;;;;131.38;72.20;;;;;;;;;;2071529;28;20263;-54
2021/07/25 04:07:48;;;;;;;128.27;70.07;;;;;;;;;;2071353;28;20177;-53
2021/07/25 04:08:48;;;;;;;134.60;72.90;;;;;;;;;;2067942;28;20275;-52
2021/07/25 04:09:49;;;;;;;133.27;72.35;;;;;;;;;;2071872;28;20165;-55
2021/07/25 04:10:49;;;;;;;125.88;72.63;;;;;;;;;;2071388;28;20267;-54
2021/07/25 04:11:53;;;;;;;131.05;71.10;;;;;;;;;;2065713;28;20178;-52
2021/07/25 04:12:53;;;;;;;129.90;74.57;;;;;;;;;;2072364;28;20196;-54
2021/07/25 04:13:54;;;;;;;129.27;70.13;;;;;;;;;;2069336;28;20182;-54
2021/07/25 04:14:54;;;;;;;135.52;74.00;;;;;;;;;;2072354;28;20177;-55
2021/07/25 04:15:54;;;;;;;130.57;71.45;;;;;;;;;;2071563;28;20220;-52
2021/07/25 04:16:54;;;;;;;134.10;72.38;;;;;;;;;;2071541;28;20267;-55
2021/07/25 04:17:54;;;;;;;130.68;73.80;;;;;;;;;;2072556;28;20247;-54
2021/07/25 04:18:55;;;;;;;130.07;72.45;;;;;;;;;;2069091;28;20182;-52
2021/07/25 04:19:55;;;;;;;125.13;70.00;;;;;;;;;;2069236;28;20169;-51
2021/07/25 04:20:55;;;;;;;112.97;66.45;;;;;;;;;;2071483;28;20716;-54
2021/07/25 04:21:56;;;;;;;123.45;69.45;;;;;;;;;;2071882;28;20177;-53
2021/07/25 04:22:56;;;;;;;124.22;71.95;;;;;;;;;;2071592;28;20172;-54
2021/07/25 04:23:56;;;;;;;120.22;71.20;;;;;;;;;;2069087;28;20180;-51
2021/07/25 04:24:56;;;;;;;115.78;69.30;;;;;;;;;;2071192;28;20209;-52
2021/07/25 04:25:57;;;;;;;120.65;68.78;;;;;;;;;;2072189;28;20673;-55
2021/07/25 04:26:57;;;;;;;113.20;66.15;;;;;;;;;;2067076;28;21595;-55
2021/07/25 04:27:58;;;;;;;108.13;65.50;;;;;;;;;;2072908;28;20244;-54
2021/07/25 04:28:59;;;;;;;109.68;64.38;;;;;;;;;;2070934;28;20176;-51
2021/07/25 04:29:59;;;;;;;109.38;68.43;;;;;;;;;;2072258;28;20204;-54
2021/07/25 04:31:00;;;;;;;105.95;65.78;;;;;;;;;;2069550;28;20193;-54
2021/07/25 04:32:00;;;;;;;108.35;64.13;;;;;;;;;;2067657;28;20176;-52
2021/07/25 04:33:01;;;;;;;98.25;62.05;;;;;;;;;;2073670;28;20184;-52
2021/07/25 04:34:03;;;;;;;98.00;61.00;;;;;;;;;;2072459;28;20165;-52
2021/07/25 04:35:07;;;;;;;106.78;64.05;;;;;;;;;;2071511;28;20178;-55
2021/07/25 04:36:24;;;;;;;101.05;61.55;;;;;;;;;;2073497;28;20534;-53
2021/07/25 04:37:27;;;;;;;103.32;60.35;;;;;;;;;;2071564;28;20275;-53
2021/07/25 04:38:27;;;;;;;99.57;62.30;;;;;;;;;;2068726;28;20223;-53
2021/07/25 04:39:28;;;;;;;103.03;62.85;;;;;;;;;;2070155;28;20578;-52
2021/07/25 04:40:28;;;;;;;96.90;61.08;;;;;;;;;;2071683;28;20200;-56
2021/07/25 04:41:30;;;;;;;98.72;60.33;;;;;;;;;;2072178;28;20633;-53
2021/07/25 04:42:33;;;;;;;103.35;63.97;;;;;;;;;;2073201;28;20192;-55
2021/07/25 04:43:33;;;;;;;103.30;62.45;;;;;;;;;;2070525;28;20174;-52
2021/07/25 04:44:45;;;;;;;102.22;62.90;;;;;;;;;;2071593;28;20189;-57
2021/07/25 04:45:57;;;;;;;108.25;63.13;;;;;;;;;;2070686;28;20528;-55
2021/07/25 04:47:00;;;;;;;106.68;63.90;;;;;;;;;;2073598;28;20182;-57
2021/07/25 04:48:04;;;;;;;97.90;59.30;;;;;;;;;;2068234;28;20603;-56
2021/07/25 04:49:11;;;;;;;98.63;61.53;;;;;;;;;;2073148;28;20660;-53
2021/07/25 04:50:15;;;;;;;110.43;62.95;;;;;;;;;;2070608;28;20276;-52
2021/07/25 04:51:16;;;;;;;101.93;63.30;;;;;;;;;;2071545;28;20198;-56
2021/07/25 04:52:16;;;;;;;98.63;61.35;;;;;;;;;;2071556;28;20180;-52
2021/07/25 04:53:24;;;;;;;100.30;63.92;;;;;;;;;;2073790;28;20173;-54
2021/07/25 04:54:25;;;;;;;101.22;60.83;;;;;;;;;;2072262;28;20747;-53
2021/07/25 04:55:29;;;;;;;101.63;62.15;;;;;;;;;;2073344;28;20254;-54
2021/07/25 04:56:30;;;;;;;90.88;56.83;;;;;;;;;;2073047;28;20230;-52
2021/07/25 04:57:33;;;;;;;96.18;59.88;;;;;;;;;;2072661;28;20255;-54
2021/07/25 04:58:46;;;;;;;102.38;62.58;;;;;;;;;;2074883;28;20184;-55
2021/07/25 04:59:47;;;;;;;101.32;64.43;;;;;;;;;;2067987;28;20224;-53
2021/07/25 05:00:49;;;;;;;89.43;57.90;;;;;;;;;;2074991;28;20691;-56
2021/07/25 05:01:50;;;;;;;93.75;59.17;;;;;;;;;;2074059;28;20246;-52
2021/07/25 05:02:57;;;;;;;88.88;58.53;;;;;;;;;;2072583;28;20188;-53
2021/07/25 05:04:01;;;;;;;93.82;58.67;;;;;;;;;;2073016;28;20256;-54
2021/07/25 05:05:02;;;;;;;86.45;55.70;;;;;;;;;;2074261;28;20170;-56
2021/07/25 05:06:02;;;;;;;86.05;57.78;;;;;;;;;;2073060;28;20626;-54
2021/07/25 05:07:03;;;;;;;84.85;55.70;;;;;;;;;;2072647;28;20602;-52
2021/07/25 05:08:03;;;;;;;88.53;56.00;;;;;;;;;;2072955;28;20176;-55
2021/07/25 05:09:04;;;;;;;84.88;55.80;;;;;;;;;;2074012;28;20508;-55
2021/07/25 05:10:04;;;;;;;82.32;53.45;;;;;;;;;;2072649;28;20216;-54
2021/07/25 05:11:25;;;;;;;90.22;55.08;;;;;;;;;;2072922;28;20177;-54
2021/07/25 05:12:44;;;;;;;81.30;53.83;;;;;;;;;;2070887;28;20829;-55
2021/07/25 05:13:46;;;;;;;86.72;55.95;;;;;;;;;;2072246;28;20539;-51
2021/07/25 05:15:03;;;;;;;81.53;53.70;;;;;;;;;;2073661;28;20299;-55
2021/07/25 05:16:06;;;;;;;82.68;53.53;;;;;;;;;;2071688;28;20650;-54
2021/07/25 05:17:26;;;;;;;82.85;52.72;;;;;;;;;;2069848;28;20181;-53
2021/07/25 05:18:46;;;;;;;70.63;49.95;;;;;;;;;;2069693;28;20176;-53
2021/07/25 05:19:51;;;;;;;83.57;52.15;;;;;;;;;;2065439;28;20186;-54
2021/07/25 05:21:12;;;;;;;77.43;52.25;;;;;;;;;;2069403;28;20170;-55
2021/07/25 05:22:21;;;;;;;76.32;51.05;;;;;;;;;;2068666;28;20196;-53
2021/07/25 05:23:26;;;;;;;70.85;48.78;;;;;;;;;;2070404;28;20181;-52
2021/07/25 05:24:27;;;;;;;72.38;49.80;;;;;;;;;;2070414;28;20193;-57
2021/07/25 05:25:28;;;;;;;66.30;44.92;;;;;;;;;;2073135;28;20212;-55
2021/07/25 05:26:29;;;;;;;69.90;45.78;;;;;;;;;;2072815;28;20165;-54
2021/07/25 05:27:33;;;;;;;68.63;44.90;;;;;;;;;;2071422;28;20203;-54
2021/07/25 05:28:35;;;;;;;62.05;42.90;;;;;;;;;;2072902;28;20172;-53
2021/07/25 05:29:37;;;;;;;63.58;42.17;;;;;;;;;;2073903;28;20173;-53
2021/07/25 05:30:39;;;;;;;61.70;40.70;;;;;;;;;;2073193;28;20200;-56
2021/07/25 05:31:39;;;;;;;59.28;41.28;;;;;;;;;;2073444;28;20714;-55
2021/07/25 05:32:39;;;;;;;59.60;40.38;;;;;;;;;;2073298;28;20227;-55
2021/07/25 05:33:40;;;;;;;62.00;40.88;;;;;;;;;;2070301;28;20265;-54
2021/07/25 05:34:40;;;;;;;55.08;38.53;;;;;;;;;;2073213;23;20980;-53
2021/07/25 05:35:40;;;;;;;62.30;39.78;;;;;;;;;;2066191;28;20224;-60
2021/07/25 05:36:40;;;;;;;54.53;38.63;;;;;;;;;;2064831;28;20224;-57
2021/07/25 05:37:41;;;;;;;51.63;37.13;;;;;;;;;;2065144;28;20217;-57
2021/07/25 05:38:41;;;;;;;53.03;36.05;;;;;;;;;;2065892;28;20649;-59
2021/07/25 05:39:42;;;;;;;49.92;36.40;;;;;;;;;;2064632;28;20646;-58
2021/07/25 05:40:42;;;;;;;48.90;34.08;;;;;;;;;;2065284;28;20273;-60
2021/07/25 05:41:42;;;;;;;45.45;34.15;;;;;;;;;;2063362;28;20522;-59
2021/07/25 05:42:43;;;;;;;49.35;34.20;;;;;;;;;;2067534;28;20184;-56
2021/07/25 05:43:43;;;;;;;47.05;33.75;;;;;;;;;;2056592;28;20178;-58
2021/07/25 05:44:43;;;;;;;46.88;33.40;;;;;;;;;;2056168;28;20197;-59
2021/07/25 05:45:44;;;;;;;40.53;31.00;;;;;;;;;;2062390;28;20182;-59
2021/07/25 05:46:44;;;;;;;42.72;30.27;;;;;;;;;;2065878;28;20542;-59
2021/07/25 05:47:44;;;;;;;35.70;27.50;;;;;;;;;;2057518;28;20244;-60
2021/07/25 05:48:44;;;;;;;35.38;28.50;;;;;;;;;;2065912;28;20173;-59
2021/07/25 05:49:44;;;;;;;39.75;29.20;;;;;;;;;;2062279;28;20639;-56
2021/07/25 05:50:45;;;;;;;37.38;29.85;;;;;;;;;;2057248;28;20241;-57
2021/07/25 05:51:45;;;;;;;36.58;29.02;;;;;;;;;;2045530;28;20602;-54
2021/07/25 05:52:47;;;;;;;38.40;28.80;;;;;;;;;;2056277;28;20174;-49
2021/07/25 05:53:47;;;;;;;38.80;28.23;;;;;;;;;;2067327;28;20662;-59
2021/07/25 05:54:47;;;;;;;37.60;29.17;;;;;;;;;;2065236;28;20268;-59
2021/07/25 05:55:48;;;;;;;40.22;29.83;;;;;;;;;;2060051;28;20263;-57
2021/07/25 05:56:48;;;;;;;42.33;30.35;;;;;;;;;;2066043;28;20174;-55